Silveiras, Brazil
Current Conditions -  °F | °C
As of 7:00 AM on Wednesday 28 Jan 2015 (Local Time) from SBGW Reporting Station
Clear Clear  
Wind Chill: 68°   Ceiling: Unl
Heat Index: 68°   Visibility: 6mi
Dew Point: 66°   Wind: 2mph
Humidity: 94%   Direction: 10°N
Pressure: 30.03"   Gusts: NA
Location:  22.66°S, 44.85°W
Report Text: SBGW 280900Z 01002KT 9000 NSC 20/19 Q1017
Loading
Personal Weather Stations






























Interactive Weather Map New forecast layout! Learn more

10-Day Weather Forecast

Advertisements
Track Severe Weather on mobile